Straughn, Alabama
Current Conditions -  °F | °C
As of 5:56 PM on Tuesday 25 Nov 2014 (Local Time) from K79J Reporting Station
Overcast Overcast  
Wind Chill: 55°   Ceiling: 11000
Heat Index: 55°   Visibility: 10mi
Dew Point: 44°   Wind: 0mph
Humidity: 67%   Direction: NA
Pressure: 30.07"   Gusts: NA
Location:  31.1836°N, 86.5372°W
Report Text: K79J 252356Z AUTO 00000KT 10SM SCT100 OVC110 13/07 A3007 RMK AO2 SLP181 T01280067 10150 20128 51018
Loading
Personal Weather Stations






























Interactive Weather Map New forecast layout! Learn more

10-Day Weather Forecast

Advertisements
Track Severe Weather on mobile